Aviation Digital Data Service (ADDS)

Output produced by METARs form (0417 UTC 21 June 2021)
found at http://aviationweather.gov/metar/data/
 
KRYY 210350Z AUTO 24008KT 10SM CLR 25/21 A2992 RMK AO2 SLP852 T02500211 402890206 PNO $
KRYY 210158Z 2102/2124 25006KT P6SM SCT150 BKN250 
     FM210900 24007KT P6SM BKN015 
     FM211200 24010KT P6SM BKN012 
     FM211500 24011G19KT P6SM BKN020 
     FM211800 24012G21KT P6SM VCSH BKN035 
     PROB30 2119/2123 VRB10G20KT 4SM TSRA BKN025CB
       
KPUJ 210355Z AUTO 00000KT 7SM CLR 22/22 A2994 RMK AO2
KCNI 210355Z AUTO 26004KT 10SM CLR 24/21 A2993 RMK AO2
KPDK 210353Z 25007KT 10SM CLR 24/21 A2991 RMK AO2 SLP114 T02440211
KPDK 202338Z 2100/2124 28010KT P6SM SCT035 BKN060 
     FM210200 25005KT P6SM SCT150 BKN250 
     FM210900 24007KT P6SM BKN015 
     FM211200 24010KT P6SM BKN012 
     FM211500 24011G19KT P6SM BKN020 
     FM211800 24012G21KT P6SM VCSH BKN035 
     PROB30 2119/2123 VRB10G20KT 4SM TSRA BKN025CB
       
KRMG 210353Z AUTO 19003KT 10SM CLR 25/21 A2989 RMK AO2 SLP111 T02500211
KATL 210352Z 25006KT 10SM FEW250 24/21 A2992 RMK AO2 SLP122 T02440211
KATL 210345Z 2104/2206 25005KT P6SM FEW200 
     FM210900 24007KT P6SM BKN015 
     FM211200 24010KT P6SM BKN012 
     FM211500 24011G19KT P6SM BKN020 
     FM211800 24012G21KT P6SM VCSH BKN035 
     PROB30 2119/2123 VRB10G20KT 4SM TSRA BKN025CB 
     FM220100 22008KT P6SM VCSH BKN025
       
KFFC 210353Z AUTO 00000KT 10SM CLR 23/22 A2993 RMK AO2 SLP129 T02330222
KGAD 210356Z AUTO 00000KT 10SM CLR 22/22 A2990 RMK AO2 SLP123 T02220217
KCHA 210353Z 15004KT 10SM FEW047 26/21 A2987 RMK AO2 SLP107 LAST T02610206
KCHA 202326Z 2100/2124 VRB03KT P6SM FEW045 SCT250 
     FM211500 21010G18KT P6SM SCT045 
     PROB30 2118/2124 4SM TSRA BR BKN035CB
       
KDNN 210355Z AUTO 00000KT 10SM CLR 24/21 A2991 RMK AO2
KAHN 210351Z AUTO 23003KT 10SM CLR 23/21 A2989 RMK AO2 SLP116 T02280211 $
KAHN 210134Z 2102/2124 30008KT P6SM FEW050 BKN090 
     FM210400 25005KT P6SM SCT150 BKN250 
     FM210900 24007KT P6SM BKN015 
     FM211200 24010KT P6SM BKN012 
     FM211500 24011G19KT P6SM BKN020 
     FM211800 24012G21KT P6SM VCSH BKN035 
     PROB30 2119/2123 VRB10G20KT 4SM TSRA BKN025CB
       
KLZU 210356Z AUTO 26005KT 10SM CLR 23/21 A2991 RMK AO2 SLP130 T02330211 402890200